Time;durP1;ratioP1;P1;durP2;ratioP2;P2;SDS_P1;SDS_P2;PMS_P1;PMS_P2;Temp;Humidity;BMP_temperature;BMP_pressure;BME280_temperature;BME280_humidity;BME280_pressure;Samples;Min_cycle;Max_cycle;Signal;HPM_P1;HPM_P2
2023/01/24 09:13:44;;;;;;;5.88;4.10;;;;;;;22.32;30.85;103290.25;5070256;28;20457;-44
2023/01/24 09:16:13;;;;;;;5.50;3.45;;;;;;;22.63;30.43;103280.66;5051163;28;20028;-42
2023/01/24 09:18:41;;;;;;;4.10;2.92;;;;;;;22.89;29.83;103288.19;5069125;28;20442;-43
2023/01/24 09:21:10;;;;;;;7.97;3.45;;;;;;;22.99;30.04;103280.88;5069217;28;20153;-42
2023/01/24 09:23:38;;;;;;;4.10;2.65;;;;;;;23.10;29.67;103274.47;5068698;28;20480;-43
2023/01/24 09:26:05;;;;;;;3.67;3.00;;;;;;;23.25;29.44;103282.25;5068645;28;20395;-43
2023/01/24 09:28:33;;;;;;;4.57;3.28;;;;;;;23.27;29.39;103287.59;5069066;28;20025;-41
2023/01/24 09:31:02;;;;;;;3.38;3.00;;;;;;;23.26;29.17;103288.41;5069302;28;20037;-42
2023/01/24 09:33:29;;;;;;;6.35;3.33;;;;;;;23.31;29.13;103284.34;5061261;28;20056;-44
2023/01/24 09:36:00;;;;;;;3.33;2.42;;;;;;;23.32;29.13;103280.91;5068907;28;20025;-42
2023/01/24 09:38:30;;;;;;;3.28;2.10;;;;;;;23.39;29.08;103288.25;5065715;28;20032;-43
2023/01/24 09:41:26;;;;;;;4.00;2.47;;;;;;;23.41;29.14;103289.22;5065445;28;20127;-43
2023/01/24 09:43:59;;;;;;;3.70;2.63;;;;;;;23.42;28.61;103292.72;5067220;28;20103;-42
2023/01/24 09:46:41;;;;;;;4.47;2.75;;;;;;;23.45;28.76;103292.88;5064761;28;20510;-43
2023/01/24 09:49:14;;;;;;;3.78;2.45;;;;;;;23.43;28.97;103298.06;5054678;28;20127;-46
2023/01/24 09:51:47;;;;;;;5.68;2.30;;;;;;;23.45;28.50;103304.28;5049474;28;20476;-41
2023/01/24 09:54:38;;;;;;;3.50;2.45;;;;;;;23.47;28.71;103300.03;5059103;28;20108;-42
2023/01/24 09:57:32;;;;;;;4.90;2.53;;;;;;;23.49;28.90;103294.84;5047975;28;20029;-42
2023/01/24 10:00:11;;;;;;;4.05;2.60;;;;;;;23.51;28.68;103288.88;5064989;28;20094;-42
2023/01/24 10:02:42;;;;;;;5.40;2.13;;;;;;;23.56;28.68;103299.59;5043893;28;20121;-42
2023/01/24 10:05:16;;;;;;;3.53;1.98;;;;;;;23.54;28.59;103298.63;5064479;28;20021;-41
2023/01/24 10:08:02;;;;;;;4.40;2.08;;;;;;;23.61;28.28;103305.06;5068409;28;20099;-42
2023/01/24 10:10:52;;;;;;;3.08;1.90;;;;;;;23.59;28.68;103299.75;5064286;28;20403;-44
2023/01/24 10:13:25;;;;;;;2.17;1.67;;;;;;;23.64;28.21;103308.75;5058568;28;20147;-46
2023/01/24 10:16:01;;;;;;;3.63;1.90;;;;;;;23.73;28.52;103302.19;5036091;28;20025;-42
2023/01/24 10:18:48;;;;;;;2.83;1.50;;;;;;;23.64;28.16;103302.63;5055147;28;20496;-42
2023/01/24 10:21:36;;;;;;;3.30;1.77;;;;;;;23.63;28.77;103298.19;5045828;28;20041;-44
2023/01/24 10:24:09;;;;;;;4.72;2.10;;;;;;;23.66;28.12;103301.88;5047115;28;20057;-43
2023/01/24 10:26:44;;;;;;;5.28;2.17;;;;;;;23.65;28.40;103299.19;5033774;28;20029;-44
2023/01/24 10:29:23;;;;;;;2.20;1.77;;;;;;;23.69;28.50;103295.88;5052092;28;20029;-43
2023/01/24 10:31:55;;;;;;;4.28;1.88;;;;;;;23.70;28.48;103291.56;5053977;28;20025;-42
2023/01/24 10:34:49;;;;;;;3.05;1.63;;;;;;;23.67;28.32;103302.75;5050361;28;20028;-43
2023/01/24 10:37:29;;;;;;;2.08;1.42;;;;;;;23.67;28.05;103294.88;5051661;28;20025;-42
2023/01/24 10:40:00;;;;;;;2.35;1.75;;;;;;;23.77;28.25;103298.88;5036882;28;20029;-42
2023/01/24 10:42:30;;;;;;;2.70;1.58;;;;;;;23.78;28.18;103296.38;5036781;28;20039;-44
2023/01/24 10:45:04;;;;;;;2.67;1.65;;;;;;;23.75;27.98;103301.44;5047643;28;20577;-43
2023/01/24 10:47:56;;;;;;;3.60;2.42;;;;;;;23.83;28.17;103300.09;5032074;28;20087;-42
2023/01/24 10:50:24;;;;;;;5.38;2.15;;;;;;;23.79;28.21;103307.72;5046976;28;20117;-43
2023/01/24 10:52:52;;;;;;;3.47;2.45;;;;;;;23.77;28.21;103297.19;5054332;28;20029;-42
2023/01/24 10:55:35;;;;;;;4.75;2.83;;;;;;;23.76;28.25;103297.09;5045918;28;20108;-43
2023/01/24 10:58:09;;;;;;;4.47;2.20;;;;;;;23.76;28.41;103294.47;5054227;28;20037;-44
2023/01/24 11:00:42;;;;;;;5.40;3.13;;;;;;;23.79;28.18;103290.31;5036810;28;20020;-42
2023/01/24 11:03:24;;;;;;;4.07;2.40;;;;;;;23.73;28.05;103282.13;5050179;28;20051;-42
2023/01/24 11:05:55;;;;;;;2.75;1.80;;;;;;;23.80;28.24;103285.94;5033039;28;20025;-43
2023/01/24 11:08:26;;;;;;;3.30;1.92;;;;;;;23.78;28.10;103280.63;5036536;28;20029;-43
2023/01/24 11:10:57;;;;;;;5.07;2.25;;;;;;;23.77;28.30;103270.97;5036222;28;20060;-42
2023/01/24 11:13:31;;;;;;;6.53;2.45;;;;;;;23.80;28.45;103280.69;5052666;28;20140;-42
2023/01/24 11:16:06;;;;;;;3.40;2.10;;;;;;;23.80;28.33;103273.75;5034195;28;20063;-42
2023/01/24 11:18:36;;;;;;;3.45;2.13;;;;;;;23.83;28.56;103262.50;5053815;28;20349;-42
2023/01/24 11:21:14;;;;;;;4.00;2.33;;;;;;;23.83;28.58;103273.00;5053944;28;20053;-43
2023/01/24 11:23:44;;;;;;;2.65;1.83;;;;;;;23.93;28.04;103272.63;5042213;28;20492;-43
2023/01/24 11:26:32;;;;;;;2.65;1.83;;;;;;;23.87;28.47;103272.34;5034114;28;20025;-42
2023/01/24 11:29:04;;;;;;;2.22;1.55;;;;;;;23.85;28.04;103257.34;5051845;28;20036;-41
2023/01/24 11:31:44;;;;;;;3.20;2.00;;;;;;;23.89;27.96;103259.28;5035822;28;20496;-43
2023/01/24 11:34:21;;;;;;;2.47;1.60;;;;;;;23.88;28.41;103255.78;5048518;28;20029;-42
2023/01/24 11:37:19;;;;;;;4.47;1.77;;;;;;;23.85;27.96;103258.25;5049709;28;20035;-42
2023/01/24 11:40:11;;;;;;;2.97;1.90;;;;;;;23.82;28.39;103239.75;5049508;28;20068;-44
2023/01/24 11:42:44;;;;;;;2.83;1.80;;;;;;;23.92;28.23;103247.22;5037177;28;20041;-42
2023/01/24 11:45:32;;;;;;;3.97;1.63;;;;;;;23.90;27.96;103237.50;5047852;28;20431;-44
2023/01/24 11:48:20;;;;;;;3.05;1.90;;;;;;;23.89;28.39;103238.31;5050754;28;20027;-43
2023/01/24 11:50:56;;;;;;;3.72;1.92;;;;;;;23.95;28.42;103236.91;5032217;28;20028;-42
2023/01/24 11:54:02;;;;;;;3.22;1.38;;;;;;;23.92;28.28;103230.63;5048740;28;20033;-43
2023/01/24 11:56:53;;;;;;;3.30;1.35;;;;;;;23.95;28.13;103223.78;5034290;28;20036;-41
2023/01/24 11:59:40;;;;;;;3.90;1.77;;;;;;;24.02;28.23;103224.13;5032286;28;20073;-43
2023/01/24 12:02:28;;;;;;;3.45;1.45;;;;;;;24.06;28.26;103218.22;5051004;28;20039;-42
2023/01/24 12:05:26;;;;;;;3.60;1.55;;;;;;;23.96;28.34;103222.09;5042140;28;20076;-41
2023/01/24 12:08:17;;;;;;;2.40;1.45;;;;;;;23.99;28.19;103217.03;5021984;28;20079;-44
2023/01/24 12:10:57;;;;;;;3.25;1.90;;;;;;;23.99;28.45;103219.66;5051979;28;20033;-41
2023/01/24 12:13:44;;;;;;;2.88;2.05;;;;;;;24.00;28.51;103208.31;5048569;28;20044;-44
2023/01/24 12:16:35;;;;;;;4.82;2.30;;;;;;;23.99;28.56;103203.91;5051158;28;20021;-43
2023/01/24 12:19:22;;;;;;;4.53;2.65;;;;;;;23.99;28.19;103198.69;5034997;28;20391;-42
2023/01/24 12:21:57;;;;;;;22.92;3.83;;;;;;;24.06;28.43;103206.00;5052205;28;20029;-43
2023/01/24 12:24:27;;;;;;;;;;;;;;;24.05;28.13;103201.56;5030614;28;20499;-43
2023/01/24 12:26:57;;;;;;;3.90;2.35;;;;;;;24.12;28.38;103197.53;5048474;28;20291;-40
2023/01/24 12:29:32;;;;;;;2.67;1.85;;;;;;;24.09;28.32;103192.13;5048257;28;20021;-42
2023/01/24 12:32:02;;;;;;;3.70;1.85;;;;;;;24.07;28.38;103189.44;5049092;28;20021;-43
2023/01/24 12:34:43;;;;;;;3.60;2.10;;;;;;;24.04;28.27;103185.78;5051267;28;20032;-47
2023/01/24 12:37:21;;;;;;;3.50;1.90;;;;;;;24.05;28.32;103171.84;5034709;28;20100;-48
2023/01/24 12:40:12;;;;;;;3.15;1.77;;;;;;;24.05;28.01;103180.59;5034478;28;20024;-42
2023/01/24 12:42:57;;;;;;;4.65;2.38;;;;;;;24.00;28.19;103166.38;5045116;28;20048;-48
2023/01/24 12:45:34;;;;;;;6.18;2.28;;;;;;;24.04;28.28;103162.19;5050373;28;20480;-46
2023/01/24 12:48:14;;;;;;;4.13;1.92;;;;;;;24.00;28.30;103147.13;5031409;28;20044;-44
2023/01/24 12:50:49;;;;;;;5.07;2.00;;;;;;;24.04;28.46;103162.19;5049687;28;20396;-48
2023/01/24 12:53:48;;;;;;;3.13;1.83;;;;;;;24.00;28.22;103145.38;5052068;28;20056;-45
2023/01/24 12:56:20;;;;;;;3.33;1.50;;;;;;;24.00;28.51;103148.00;5028349;28;20503;-43
2023/01/24 12:58:50;;;;;;;4.32;1.92;;;;;;;23.96;28.71;103141.72;5033952;28;20140;-44
2023/01/24 13:01:37;;;;;;;2.80;1.50;;;;;;;23.99;28.23;103142.72;5051874;28;20029;-47
2023/01/24 13:04:20;;;;;;;3.25;1.85;;;;;;;23.99;28.41;103142.72;5039870;28;20464;-45
2023/01/24 13:07:07;;;;;;;2.90;1.73;;;;;;;24.00;28.17;103144.50;5030503;28;20033;-48
2023/01/24 13:10:00;;;;;;;3.55;1.73;;;;;;;24.00;28.52;103140.13;5048395;28;20025;-43
2023/01/24 13:12:28;;;;;;;2.28;1.33;;;;;;;24.02;28.44;103142.84;5033763;28;20466;-43
2023/01/24 13:14:57;;;;;;;2.20;1.25;;;;;;;24.01;28.52;103134.06;5049829;28;21729;-45
2023/01/24 13:18:03;;;;;;;2.30;1.52;;;;;;;23.99;28.42;103127.88;5034353;28;20361;-42
2023/01/24 13:20:52;;;;;;;5.85;1.63;;;;;;;23.99;28.61;103127.88;5051108;28;20028;-41
2023/01/24 13:23:40;;;;;;;2.58;1.30;;;;;;;24.00;28.39;103116.53;5028678;28;20032;-42
2023/01/24 13:26:26;;;;;;;3.03;1.63;;;;;;;23.98;28.41;103118.22;5040627;28;20033;-44
2023/01/24 13:29:30;;;;;;;3.45;1.30;;;;;;;23.96;28.36;103119.84;5032660;28;20033;-43
2023/01/24 13:32:06;;;;;;;1.60;1.27;;;;;;;23.98;28.44;103118.22;5039153;28;20049;-45
2023/01/24 13:34:38;;;;;;;5.25;1.50;;;;;;;23.99;28.13;103121.72;5031789;28;20455;-42
2023/01/24 13:37:06;;;;;;;3.22;1.25;;;;;;;23.96;28.50;103112.91;5047919;28;20116;-42
2023/01/24 13:39:39;;;;;;;2.58;1.50;;;;;;;24.00;28.28;103119.16;5051726;28;20108;-43
2023/01/24 13:42:22;;;;;;;3.95;1.70;;;;;;;23.95;28.64;103110.19;5047849;28;20036;-44
2023/01/24 13:44:51;;;;;;;1.88;1.30;;;;;;;24.02;28.60;103104.41;5029521;28;20033;-44
2023/01/24 13:47:19;;;;;;;2.80;1.42;;;;;;;24.02;28.13;103107.03;5034098;28;20029;-43
2023/01/24 13:50:10;;;;;;;7.20;2.45;;;;;;;24.00;28.25;103107.81;5056036;28;20067;-46
2023/01/24 13:52:40;;;;;;;3.90;2.20;;;;;;;24.04;28.09;103112.38;5055977;28;20052;-41
2023/01/24 13:55:29;;;;;;;5.10;2.28;;;;;;;23.99;28.30;103106.00;5046467;28;20029;-44
2023/01/24 13:58:18;;;;;;;3.55;2.20;;;;;;;23.99;28.19;103104.28;5036117;28;20029;-46
2023/01/24 14:00:49;;;;;;;6.07;2.10;;;;;;;24.02;28.28;103112.28;5027034;28;20045;-46
2023/01/24 14:03:22;;;;;;;4.57;2.42;;;;;;;23.97;28.56;103114.69;5032441;28;20067;-43
2023/01/24 14:05:52;;;;;;;3.13;1.80;;;;;;;23.99;28.67;103116.50;5036251;28;20025;-42
2023/01/24 14:08:21;;;;;;;3.25;1.92;;;;;;;24.04;28.32;103113.25;5035929;28;20063;-45
2023/01/24 14:11:12;;;;;;;5.25;2.25;;;;;;;24.02;28.34;103116.63;5035537;28;20033;-43
2023/01/24 14:13:44;;;;;;;4.75;2.42;;;;;;;24.04;28.40;103118.50;5036392;28;20120;-43
2023/01/24 14:16:14;;;;;;;3.00;1.83;;;;;;;24.05;28.39;103128.16;5056117;28;20511;-41
2023/01/24 14:18:44;;;;;;;2.88;1.75;;;;;;;24.06;28.68;103131.69;5055889;28;20021;-42
2023/01/24 14:21:20;;;;;;;3.17;1.80;;;;;;;24.03;28.64;103134.16;5037862;28;20029;-45
2023/01/24 14:23:51;;;;;;;2.75;1.80;;;;;;;24.06;28.57;103132.56;5054885;28;20535;-41
2023/01/24 14:26:21;;;;;;;3.28;2.15;;;;;;;24.01;28.41;103131.44;5055254;28;20051;-43
2023/01/24 14:28:55;;;;;;;2.83;1.92;;;;;;;24.05;28.69;103140.38;5037308;28;20033;-43
2023/01/24 14:31:23;;;;;;;2.30;1.60;;;;;;;24.03;28.58;103142.91;5055495;28;20116;-41
2023/01/24 14:33:53;;;;;;;7.88;2.50;;;;;;;24.04;28.32;103138.59;5034267;28;20033;-40
2023/01/24 14:36:28;;;;;;;3.95;1.90;;;;;;;24.03;28.25;103147.28;5018111;28;20033;-41
2023/01/24 14:39:14;;;;;;;;;;;;;;;24.03;28.59;103148.16;5035936;28;20482;-41
2023/01/24 14:41:42;;;;;;;3.60;1.90;;;;;;;24.08;28.16;103145.75;5035339;28;20000;-48
2023/01/24 14:44:28;;;;;;;3.15;1.58;;;;;;;24.06;28.19;103147.44;5017387;28;20067;-40
2023/01/24 14:47:00;;;;;;;2.47;1.60;;;;;;;24.07;28.32;103141.38;5055016;28;20029;-43
2023/01/24 14:49:45;;;;;;;3.22;1.83;;;;;;;24.05;28.68;103149.13;5055456;28;20032;-41
2023/01/24 14:52:23;;;;;;;;;;;;;;;24.06;28.22;103150.06;5054900;28;20120;-40
2023/01/24 14:54:54;;;;;;;2.45;1.52;;;;;;;24.08;28.16;103144.03;5044199;28;19957;-41
2023/01/24 14:57:24;;;;;;;3.72;2.10;;;;;;;24.07;28.41;103141.38;5017386;28;20388;-46
2023/01/24 15:00:21;;;;;;;2.72;1.90;;;;;;;24.06;28.23;103152.66;5035186;28;20017;-43
2023/01/24 15:02:59;;;;;;;3.15;1.90;;;;;;;24.07;28.48;103150.09;5034440;28;20041;-44
2023/01/24 15:05:31;;;;;;;3.53;1.85;;;;;;;24.08;28.32;103145.75;5016947;28;20393;-43
2023/01/24 15:08:01;;;;;;;3.05;1.73;;;;;;;24.07;28.41;103147.50;5035024;28;20116;-44
2023/01/24 15:10:34;;;;;;;3.42;2.22;;;;;;;24.08;28.34;103151.91;5034817;28;20034;-43
2023/01/24 15:13:05;;;;;;;5.72;2.75;;;;;;;24.06;28.40;103156.19;5017474;28;20056;-44
2023/01/24 15:15:34;;;;;;;4.13;2.30;;;;;;;24.04;28.42;103159.56;5034517;28;20025;-42
2023/01/24 15:18:07;;;;;;;5.65;2.60;;;;;;;24.04;28.21;103147.34;5034834;28;20026;-43
2023/01/24 15:20:35;;;;;;;5.72;2.83;;;;;;;24.06;28.21;103150.94;5034919;28;20025;-45
2023/01/24 15:23:09;;;;;;;4.10;2.40;;;;;;;24.07;27.94;103157.09;5017308;28;20030;-45
2023/01/24 15:25:38;;;;;;;11.98;2.50;;;;;;;24.01;28.22;103152.44;5033541;28;20476;-43
2023/01/24 15:28:39;;;;;;;4.30;2.45;;;;;;;24.00;28.20;103153.25;5016663;28;20030;-41
2023/01/24 15:31:21;;;;;;;4.65;2.50;;;;;;;23.99;28.33;103154.09;5031822;28;20037;-45
2023/01/24 15:33:57;;;;;;;4.18;2.47;;;;;;;23.96;27.82;103149.59;5033361;28;20164;-44
2023/01/24 15:36:26;;;;;;;7.68;2.60;;;;;;;24.01;28.04;103168.16;5034577;28;20076;-44
2023/01/24 15:38:57;;;;;;;4.28;2.40;;;;;;;23.98;27.99;103162.78;5016654;28;20393;-46
2023/01/24 15:43:45;;;;;;;3.75;2.40;;;;;;;24.00;28.39;103160.22;5033977;28;20029;-42
2023/01/24 15:44:15;;;;;;;3.58;2.33;;;;;;;24.00;28.10;103163.75;5033320;28;20029;-43
2023/01/24 15:49:34;;;;;;;7.30;2.35;;;;;;;23.99;27.92;103164.59;5030019;28;20037;-44
2023/01/24 15:52:15;;;;;;;4.32;2.10;;;;;;;23.97;28.02;103182.84;5033818;28;20029;-44
2023/01/24 15:54:45;;;;;;;2.78;2.10;;;;;;;23.98;28.38;103173.28;5033159;28;20488;-50
2023/01/24 15:57:22;;;;;;;3.53;2.00;;;;;;;23.90;28.05;103156.25;5034175;28;20021;-48
2023/01/24 15:59:55;;;;;;;2.85;1.80;;;;;;;24.00;28.40;103175.97;5034057;28;20029;-43
2023/01/24 16:02:23;;;;;;;5.28;2.50;;;;;;;23.99;28.08;103176.78;5033964;28;20029;-45
2023/01/24 16:04:51;;;;;;;5.38;2.53;;;;;;;24.00;28.25;103181.22;5033042;28;20401;-43
2023/01/24 16:07:19;;;;;;;3.47;1.75;;;;;;;23.96;28.21;103180.13;5040843;28;20036;-42
2023/01/24 16:09:48;;;;;;;4.68;1.92;;;;;;;23.99;28.38;103177.72;5053676;28;20021;-44
2023/01/24 16:12:17;;;;;;;4.40;1.80;;;;;;;23.98;28.07;103178.53;5052571;28;20102;-45
2023/01/24 16:14:50;;;;;;;3.05;2.05;;;;;;;23.98;28.50;103189.00;5044206;28;20036;-41
2023/01/24 16:17:20;;;;;;;3.28;1.90;;;;;;;23.99;28.42;103185.56;5033059;28;20022;-42
2023/01/24 16:19:47;;;;;;;5.88;2.10;;;;;;;24.01;28.36;103193.50;5037141;28;20021;-41
2023/01/24 16:22:15;;;;;;;2.72;2.17;;;;;;;24.06;28.39;103198.13;5040284;28;20046;-43
2023/01/24 16:24:44;;;;;;;4.82;2.88;;;;;;;24.05;28.03;103201.56;5039209;28;20040;-46
2023/01/24 16:27:14;;;;;;;3.95;2.78;;;;;;;24.02;28.49;103193.56;5039168;28;20075;-44
2023/01/24 16:29:43;;;;;;;4.50;2.55;;;;;;;24.04;28.14;103199.78;5021400;28;20036;-42
2023/01/24 16:32:20;;;;;;;4.55;2.50;;;;;;;24.02;28.36;103200.53;5040192;28;20416;-42
2023/01/24 16:34:49;;;;;;;6.50;3.17;;;;;;;24.09;28.13;103208.78;5021592;28;20128;-42
2023/01/24 16:37:18;;;;;;;3.80;3.15;;;;;;;24.10;28.32;103207.94;5038913;28;20017;-40
2023/01/24 16:39:45;;;;;;;5.82;3.20;;;;;;;24.10;28.21;103213.19;5039375;28;20048;-48
2023/01/24 16:42:15;;;;;;;8.88;3.10;;;;;;;24.11;28.17;103209.75;5038727;28;20087;-41
2023/01/24 16:44:43;;;;;;;5.53;2.75;;;;;;;24.09;28.15;103211.41;5038370;28;20105;-46
2023/01/24 16:47:10;;;;;;;6.18;3.08;;;;;;;24.11;28.51;103211.44;5022597;28;20029;-45
2023/01/24 16:49:37;;;;;;;4.75;2.67;;;;;;;24.16;28.03;103219.56;5036758;28;20075;-46
2023/01/24 16:52:05;;;;;;;5.70;3.00;;;;;;;24.18;28.26;103212.66;5037196;28;20469;-44
2023/01/24 16:54:33;;;;;;;4.22;2.92;;;;;;;24.15;28.00;103220.38;5034233;28;20021;-43
2023/01/24 16:57:01;;;;;;;5.57;2.60;;;;;;;24.16;28.25;103219.56;5031752;28;20477;-44
2023/01/24 16:59:28;;;;;;;6.57;2.92;;;;;;;24.17;28.24;103226.56;5032701;28;20433;-40
2023/01/24 17:01:55;;;;;;;4.10;2.75;;;;;;;24.20;28.18;103224.09;5032888;28;20032;-42
2023/01/24 17:04:23;;;;;;;3.90;2.70;;;;;;;24.12;28.06;103214.16;5037695;28;20049;-45
2023/01/24 17:06:51;;;;;;;3.17;2.60;;;;;;;24.19;28.08;103233.72;5052332;28;20058;-44
2023/01/24 17:09:20;;;;;;;4.60;2.60;;;;;;;24.30;27.89;103225.44;5034682;28;20033;-41
2023/01/24 17:11:48;;;;;;;5.05;3.17;;;;;;;24.27;28.33;103228.84;5052441;28;20480;-46
2023/01/24 17:14:16;;;;;;;3.65;2.63;;;;;;;24.32;28.07;103236.91;5052177;28;20036;-42
2023/01/24 17:16:44;;;;;;;3.63;2.55;;;;;;;24.32;27.85;103235.22;5052780;28;20455;-48
2023/01/24 17:19:12;;;;;;;3.55;2.35;;;;;;;24.32;28.09;103235.22;5052286;28;20033;-47
2023/01/24 17:21:40;;;;;;;4.35;2.95;;;;;;;24.29;27.73;103235.06;5052848;28;20028;-43
2023/01/24 17:24:09;;;;;;;3.42;2.60;;;;;;;24.26;28.11;103238.41;5051273;28;20557;-42
2023/01/24 17:26:38;;;;;;;3.92;2.53;;;;;;;24.22;27.90;103240.81;5036860;28;20029;-44
2023/01/24 17:29:06;;;;;;;5.40;3.13;;;;;;;24.15;28.05;103234.38;5018671;28;20025;-44
2023/01/24 17:31:35;;;;;;;5.22;2.63;;;;;;;24.18;28.18;103241.50;5036242;28;20034;-42
2023/01/24 17:34:02;;;;;;;4.10;2.63;;;;;;;24.22;28.25;103236.50;5038786;28;20057;-44
2023/01/24 17:36:31;;;;;;;3.17;2.40;;;;;;;24.23;28.24;103233.03;5056527;28;20029;-41
2023/01/24 17:38:59;;;;;;;4.10;2.80;;;;;;;24.31;28.00;103241.28;5056265;28;20036;-43
2023/01/24 17:41:28;;;;;;;3.80;2.53;;;;;;;24.31;27.86;103240.38;5056229;28;20032;-46
2023/01/24 17:43:56;;;;;;;3.13;2.40;;;;;;;24.37;27.77;103240.66;5054726;28;20476;-41
2023/01/24 17:46:25;;;;;;;3.80;2.70;;;;;;;24.28;27.59;103247.25;5035322;28;20034;-41
2023/01/24 17:48:53;;;;;;;4.55;2.63;;;;;;;24.25;27.90;103243.59;5036236;28;20028;-45
2023/01/24 17:51:22;;;;;;;4.97;2.70;;;;;;;24.22;27.98;103239.13;5018826;28;20111;-41
2023/01/24 17:53:51;;;;;;;2.97;2.40;;;;;;;24.21;28.01;103241.66;5036313;28;20033;-43
2023/01/24 17:56:19;;;;;;;3.17;2.53;;;;;;;24.21;27.70;103250.44;5036578;28;20104;-43
2023/01/24 17:58:47;;;;;;;5.82;2.65;;;;;;;24.22;27.83;103253.94;5017838;28;20021;-44
2023/01/24 18:01:15;;;;;;;3.15;2.60;;;;;;;24.19;27.84;103244.22;5036330;28;20030;-42
2023/01/24 18:03:45;;;;;;;3.78;2.53;;;;;;;24.19;28.02;103252.06;5036193;28;20033;-45
2023/01/24 18:06:14;;;;;;;4.20;2.45;;;;;;;24.20;28.08;103252.97;5036067;28;20095;-44
2023/01/24 18:08:41;;;;;;;2.67;2.33;;;;;;;24.18;28.21;103246.75;5035661;28;20471;-43
2023/01/24 18:11:11;;;;;;;3.30;2.13;;;;;;;24.25;28.32;103256.72;5035943;28;20029;-43
2023/01/24 18:13:40;;;;;;;3.22;2.63;;;;;;;24.22;27.93;103254.84;5014911;28;20057;-41
2023/01/24 18:16:10;;;;;;;5.30;2.67;;;;;;;24.16;27.88;103254.53;5015609;28;20540;-41
2023/01/24 18:18:40;;;;;;;4.40;2.47;;;;;;;24.19;27.91;103251.16;5015961;28;20063;-42
2023/01/24 18:21:10;;;;;;;4.82;2.67;;;;;;;24.24;27.72;103260.16;5015532;28;20028;-40
2023/01/24 18:23:38;;;;;;;4.75;2.78;;;;;;;24.17;27.89;103258.06;5016124;28;20479;-40
2023/01/24 18:26:08;;;;;;;6.15;2.78;;;;;;;24.18;27.88;103262.47;5015539;28;20026;-39
2023/01/24 18:28:37;;;;;;;4.28;2.80;;;;;;;24.14;27.99;103261.44;4998294;28;20057;-40
2023/01/24 18:31:08;;;;;;;5.75;3.28;;;;;;;24.18;28.07;103262.47;5014277;28;20022;-41
2023/01/24 18:33:37;;;;;;;6.63;3.50;;;;;;;24.17;27.92;103258.97;5015765;28;20108;-41
2023/01/24 18:36:16;;;;;;;6.75;4.20;;;;;;;24.15;28.13;103267.59;5033942;28;20112;-42
2023/01/24 18:38:46;;;;;;;6.30;3.75;;;;;;;24.16;28.03;103264.16;5035983;28;20029;-40
2023/01/24 18:41:15;;;;;;;8.40;4.03;;;;;;;24.15;28.04;103272.84;5035181;28;20053;-41
2023/01/24 18:43:43;;;;;;;7.00;3.72;;;;;;;24.15;28.06;103267.59;5035573;28;20029;-40
2023/01/24 18:46:13;;;;;;;6.55;4.07;;;;;;;24.16;28.11;103277.25;5034744;28;20052;-40
2023/01/24 18:48:43;;;;;;;8.13;4.00;;;;;;;24.17;28.24;103282.56;5035409;28;20033;-40
2023/01/24 18:51:13;;;;;;;8.35;4.07;;;;;;;24.17;28.18;103279.03;5034857;28;20029;-40
2023/01/24 18:53:43;;;;;;;11.18;4.63;;;;;;;24.19;28.18;103278.31;5035455;28;20485;-41
2023/01/24 18:56:12;;;;;;;9.18;4.50;;;;;;;24.15;28.24;103280.72;5015390;28;20038;-40
2023/01/24 18:58:40;;;;;;;8.82;4.35;;;;;;;24.14;28.48;103289.41;5015524;28;20037;-40
2023/01/24 19:01:14;;;;;;;9.52;4.65;;;;;;;24.18;28.18;103292.22;5015084;28;20033;-40
2023/01/24 19:03:43;;;;;;;13.23;4.78;;;;;;;24.19;28.38;103290.50;5015448;28;20528;-40
2023/01/24 19:06:12;;;;;;;10.88;4.65;;;;;;;24.16;28.37;103286.00;5034096;28;20083;-41
2023/01/24 19:08:40;;;;;;;9.02;3.88;;;;;;;24.18;28.67;103289.63;5033789;28;20105;-41
2023/01/24 19:11:14;;;;;;;10.95;4.47;;;;;;;24.17;28.21;103289.53;5000977;28;20477;-40
2023/01/24 19:13:43;;;;;;;10.32;4.95;;;;;;;24.19;28.34;103291.41;5032611;28;20057;-40
2023/01/24 19:16:11;;;;;;;10.40;4.50;;;;;;;24.19;28.31;103293.13;5034914;28;20032;-40
2023/01/24 19:18:40;;;;;;;8.85;3.95;;;;;;;24.17;28.52;103286.91;5034851;28;20021;-40
2023/01/24 19:21:10;;;;;;;9.00;3.85;;;;;;;24.19;28.17;103301.00;5032787;28;20056;-40
2023/01/24 19:23:40;;;;;;;9.25;4.25;;;;;;;24.21;28.09;103295.00;5033855;28;20021;-40
2023/01/24 19:26:10;;;;;;;9.23;4.53;;;;;;;24.20;28.20;103298.47;5033485;28;20045;-40
2023/01/24 19:28:39;;;;;;;10.77;3.63;;;;;;;24.23;28.27;103300.31;5000890;28;20022;-42
2023/01/24 19:31:07;;;;;;;9.40;4.30;;;;;;;24.19;28.50;103294.03;5016274;28;20021;-40
2023/01/24 19:33:36;;;;;;;7.70;3.72;;;;;;;24.18;28.26;103291.31;5033990;28;20026;-41
2023/01/24 19:36:09;;;;;;;10.20;3.88;;;;;;;24.20;28.55;103287.97;5016908;28;20021;-40
2023/01/24 19:38:38;;;;;;;9.05;3.60;;;;;;;24.21;28.13;103291.47;5016527;28;20471;-40
2023/01/24 19:41:07;;;;;;;6.28;3.95;;;;;;;24.19;28.36;103294.03;5034223;28;20457;-40
2023/01/24 19:43:37;;;;;;;7.72;3.65;;;;;;;24.20;28.52;103285.34;5016819;28;20068;-40
2023/01/24 19:46:06;;;;;;;8.82;3.75;;;;;;;24.19;28.05;103287.88;5015836;28;20032;-41
2023/01/24 19:48:34;;;;;;;6.28;3.40;;;;;;;24.26;27.82;103296.13;5016926;28;20025;-40
2023/01/24 19:51:05;;;;;;;6.85;3.95;;;;;;;24.26;28.28;103289.97;5016172;28;20396;-41
2023/01/24 19:53:34;;;;;;;7.93;3.83;;;;;;;24.21;28.23;103295.00;5034524;28;20037;-41
2023/01/24 19:56:05;;;;;;;7.18;3.67;;;;;;;24.22;28.30;103295.91;5000825;28;20029;-41
2023/01/24 19:58:33;;;;;;;7.32;4.50;;;;;;;24.24;27.97;103297.75;5034362;28;20029;-40
2023/01/24 20:01:21;;;;;;;5.45;3.83;;;;;;;24.17;28.62;103294.75;5033765;28;20057;-43
2023/01/24 20:03:50;;;;;;;9.63;3.90;;;;;;;24.23;28.27;103305.56;5033496;28;20079;-40
2023/01/24 20:06:21;;;;;;;6.18;4.20;;;;;;;24.19;28.28;103308.84;5033739;28;20102;-40
2023/01/24 20:08:52;;;;;;;7.05;3.92;;;;;;;24.20;28.24;103303.72;5033706;28;20057;-41
2023/01/24 20:11:21;;;;;;;5.88;3.65;;;;;;;24.24;28.17;103307.38;5034119;28;20029;-40
2023/01/24 20:13:49;;;;;;;9.38;3.88;;;;;;;24.22;28.38;103309.94;5015994;28;20049;-40
2023/01/24 20:16:21;;;;;;;6.55;3.80;;;;;;;24.21;28.10;103304.59;5033724;28;20087;-40
2023/01/24 20:18:51;;;;;;;6.18;3.60;;;;;;;24.21;28.12;103302.88;5033525;28;20034;-40
2023/01/24 20:21:19;;;;;;;6.28;3.55;;;;;;;24.23;28.21;103302.94;5033503;28;20037;-41
2023/01/24 20:23:48;;;;;;;5.25;3.60;;;;;;;24.25;28.16;103311.78;5033443;28;20026;-40
2023/01/24 20:26:17;;;;;;;4.97;3.30;;;;;;;24.23;28.27;103308.19;5015944;28;20057;-40
2023/01/24 20:28:46;;;;;;;5.28;3.70;;;;;;;24.21;28.48;103301.97;5016016;28;20083;-41
2023/01/24 20:31:15;;;;;;;6.05;3.35;;;;;;;24.18;28.07;103297.47;4999510;28;20029;-42
2023/01/24 20:33:44;;;;;;;5.53;3.47;;;;;;;24.21;28.14;103302.88;5033316;28;20025;-40
2023/01/24 20:36:14;;;;;;;4.30;2.97;;;;;;;24.21;27.87;103308.13;5033572;28;20030;-41
2023/01/24 20:38:42;;;;;;;5.13;3.40;;;;;;;24.23;28.06;103310.81;5016244;28;20036;-41
2023/01/24 20:41:15;;;;;;;5.43;3.40;;;;;;;24.21;28.02;103300.25;5016027;28;20029;-41
2023/01/24 20:43:44;;;;;;;5.43;3.63;;;;;;;24.20;28.00;103300.16;5033793;28;20029;-40
2023/01/24 20:46:19;;;;;;;6.22;3.72;;;;;;;24.18;27.84;103301.81;5032871;28;20025;-40
2023/01/24 20:48:48;;;;;;;16.23;8.68;;;;;;;24.23;28.38;103297.69;5033511;28;20053;-41
